createdAt,value
2022-09-28T00:00:59.684Z,98322.25
2022-09-28T00:04:02.733Z,98323.91
2022-09-28T00:07:05.354Z,98318.22
2022-09-28T00:10:08.521Z,98323.91
2022-09-28T00:13:11.121Z,98323.16
2022-09-28T00:16:16.937Z,98328.59
2022-09-28T00:19:19.718Z,98329.09
2022-09-28T00:22:22.483Z,98312.03
2022-09-28T00:25:25.162Z,98310.72
2022-09-28T00:28:28.287Z,98328.72
2022-09-28T00:31:32.995Z,98315.75
2022-09-28T00:34:40.705Z,98324.50
2022-09-28T00:37:43.302Z,98328.03
2022-09-28T00:40:46.306Z,98343.56
2022-09-28T00:43:48.941Z,98328.06
2022-09-28T00:47:08.492Z,98335.66
2022-09-28T00:50:14.754Z,98343.50
2022-09-28T00:53:25.974Z,98323.34
2022-09-28T00:56:32.372Z,98343.12
2022-09-28T00:59:35.401Z,98341.47
2022-09-28T01:02:38.101Z,98345.56
2022-09-28T01:05:41.712Z,98342.06
2022-09-28T01:08:45.913Z,98327.41
2022-09-28T01:11:48.947Z,98342.34
2022-09-28T01:14:52.804Z,98351.06
2022-09-28T01:18:32.325Z,98338.59
2022-09-28T01:21:56.186Z,98344.06
2022-09-28T01:25:13.202Z,98342.22
2022-09-28T01:28:19.274Z,98319.66
2022-09-28T01:31:31.319Z,98335.34
2022-09-28T01:34:48.345Z,98336.44
2022-09-28T01:38:02.851Z,98339.44
2022-09-28T01:41:06.986Z,98327.50
2022-09-28T01:44:14.907Z,98325.38
2022-09-28T01:47:21.361Z,98343.03
2022-09-28T01:50:27.804Z,98341.66
2022-09-28T01:53:39.523Z,98345.78
2022-09-28T01:56:51.935Z,98345.22
2022-09-28T02:00:03.428Z,98347.69
2022-09-28T02:03:24.437Z,98352.56
2022-09-28T02:06:36.331Z,98355.59
2022-09-28T02:09:42.835Z,98348.22
2022-09-28T02:12:54.662Z,98359.69
2022-09-28T02:16:06.488Z,98349.91
2022-09-28T02:19:21.074Z,98351.28
2022-09-28T02:22:33.820Z,98338.78
2022-09-28T02:25:45.753Z,98339.06
2022-09-28T02:28:48.496Z,98337.97
2022-09-28T02:31:52.191Z,98317.88
2022-09-28T02:34:55.865Z,98334.47
2022-09-28T02:37:58.755Z,98327.13
2022-09-28T02:41:08.912Z,98339.63
2022-09-28T02:44:40.581Z,98338.81
2022-09-28T02:48:31.355Z,98345.63
2022-09-28T02:51:54.342Z,98340.44
2022-09-28T02:55:09.132Z,98341.00
2022-09-28T02:58:20.953Z,98335.84
2022-09-28T03:01:35.558Z,98346.97
2022-09-28T03:05:19.404Z,98341.78
2022-09-28T03:08:30.504Z,98346.97
2022-09-28T03:11:41.971Z,98351.84
2022-09-28T03:14:45.670Z,98354.03
2022-09-28T03:17:49.593Z,98363.28
2022-09-28T03:20:52.422Z,98361.38
2022-09-28T03:23:55.899Z,98361.91
2022-09-28T03:26:58.555Z,98348.31
2022-09-28T03:30:01.708Z,98361.69
2022-09-28T03:33:05.433Z,98337.19
2022-09-28T03:36:09.682Z,98358.41
2022-09-28T03:39:13.316Z,98354.06
2022-09-28T03:42:16.250Z,98345.91
2022-09-28T03:45:19.886Z,98335.28
2022-09-28T03:48:34.454Z,98342.09
2022-09-28T03:51:37.067Z,98335.56
2022-09-28T03:54:40.029Z,98321.16
2022-09-28T03:57:42.724Z,98331.25
2022-09-28T04:00:45.769Z,98326.91
2022-09-28T04:03:55.101Z,98327.16
2022-09-28T04:07:00.965Z,98325.28
2022-09-28T04:10:04.039Z,98322.53
2022-09-28T04:13:06.884Z,98313.31
2022-09-28T04:16:10.704Z,98298.12
2022-09-28T04:19:14.233Z,98306.28
2022-09-28T04:22:19.150Z,98313.62
2022-09-28T04:25:21.790Z,98314.16
2022-09-28T04:28:43.744Z,98311.72
2022-09-28T04:31:49.707Z,98303.56
2022-09-28T04:34:52.902Z,98314.13
2022-09-28T04:37:55.573Z,98316.06
2022-09-28T04:40:58.842Z,98317.91
2022-09-28T04:44:01.993Z,98324.41
2022-09-28T04:47:05.446Z,98321.16
2022-09-28T04:50:09.305Z,98303.78
2022-09-28T04:53:12.163Z,98305.44
2022-09-28T04:56:16.527Z,98303.28
2022-09-28T04:59:19.443Z,98326.66
2022-09-28T05:02:22.174Z,98333.16
2022-09-28T05:05:25.579Z,98327.47
2022-09-28T05:08:30.230Z,98338.59
2022-09-28T05:11:33.490Z,98342.16
2022-09-28T05:14:36.317Z,98330.72
2022-09-28T05:17:39.688Z,98339.97
2022-09-28T05:20:42.458Z,98331.81
2022-09-28T05:23:47.513Z,98336.69
2022-09-28T05:26:50.271Z,98330.69
2022-09-28T05:29:53.149Z,98339.63
2022-09-28T05:32:56.958Z,98340.84
2022-09-28T05:36:01.870Z,98335.97
2022-09-28T05:39:05.295Z,98336.00
2022-09-28T05:42:08.356Z,98332.09
2022-09-28T05:45:11.076Z,98329.53
2022-09-28T05:48:15.059Z,98329.03
2022-09-28T05:51:17.906Z,98309.31
2022-09-28T05:54:20.930Z,98309.37
2022-09-28T05:57:23.639Z,98314.03
2022-09-28T06:00:28.430Z,98307.75
2022-09-28T06:03:31.494Z,98309.25
2022-09-28T06:06:35.775Z,98312.19
2022-09-28T06:09:38.638Z,98308.47
2022-09-28T06:12:41.397Z,98306.44
2022-09-28T06:15:46.385Z,98304.47
2022-09-28T06:18:49.947Z,98319.56
2022-09-28T06:21:54.205Z,98330.25
2022-09-28T06:24:56.836Z,98333.91
2022-09-28T06:28:06.346Z,98333.09
2022-09-28T06:31:09.014Z,98335.75
2022-09-28T06:34:16.092Z,98330.28
2022-09-28T06:37:19.925Z,98310.34
2022-09-28T06:40:23.548Z,98335.12
2022-09-28T06:43:29.848Z,98330.28
2022-09-28T06:46:40.186Z,98328.44
2022-09-28T06:49:46.096Z,98333.72
2022-09-28T06:52:55.263Z,98325.75
2022-09-28T06:55:58.749Z,98330.28
2022-09-28T06:59:01.784Z,98319.63
2022-09-28T07:02:04.993Z,98334.91
2022-09-28T07:05:12.465Z,98327.31
2022-09-28T07:08:15.999Z,98328.00
2022-09-28T07:11:20.440Z,98313.44
2022-09-28T07:14:40.113Z,98298.06
2022-09-28T07:17:59.259Z,98289.50
2022-09-28T07:21:09.297Z,98293.37
2022-09-28T07:24:14.395Z,98273.41
2022-09-28T07:27:19.163Z,98294.84
2022-09-28T07:30:22.400Z,98307.78
2022-09-28T07:33:32.849Z,98293.59
2022-09-28T07:36:36.406Z,98303.13
2022-09-28T07:40:05.927Z,98288.94
2022-09-28T07:43:09.073Z,98307.31
2022-09-28T07:46:12.386Z,98315.87
2022-09-28T07:49:16.818Z,98319.91
2022-09-28T07:52:24.878Z,98324.69
2022-09-28T07:55:30.542Z,98308.56
2022-09-28T07:58:35.707Z,98307.94
2022-09-28T08:01:40.404Z,98305.97
2022-09-28T08:04:43.874Z,98300.38
2022-09-28T08:07:46.435Z,98314.56
2022-09-28T08:10:52.512Z,98300.00
2022-09-28T08:13:56.754Z,98323.75
2022-09-28T08:17:03.599Z,98306.97
2022-09-28T08:20:25.657Z,98319.50
2022-09-28T08:23:28.527Z,98318.84
2022-09-28T08:26:31.882Z,98308.41
2022-09-28T08:29:34.881Z,98317.09
2022-09-28T08:32:38.209Z,98298.97
2022-09-28T08:35:42.634Z,98307.25
2022-09-28T08:38:45.344Z,98296.19
2022-09-28T08:41:59.929Z,98303.13
2022-09-28T08:45:27.491Z,98297.00
2022-09-28T08:48:51.780Z,98295.38
2022-09-28T08:52:16.349Z,98294.37
2022-09-28T08:55:32.690Z,98293.78
2022-09-28T08:58:39.698Z,98301.91
2022-09-28T09:01:50.478Z,98289.00
2022-09-28T09:04:53.709Z,98303.69
2022-09-28T09:08:15.608Z,98297.50
2022-09-28T09:11:48.852Z,98290.34
2022-09-28T09:15:22.784Z,98283.34
2022-09-28T09:18:43.017Z,98275.22
2022-09-28T09:22:01.615Z,98274.03
2022-09-28T09:25:20.370Z,98272.38
2022-09-28T09:28:43.735Z,98273.03
2022-09-28T09:31:59.620Z,98296.09
2022-09-28T09:35:22.679Z,98286.37
2022-09-28T09:38:34.071Z,98276.69
2022-09-28T09:41:49.361Z,98269.91
2022-09-28T09:45:10.945Z,98268.56
2022-09-28T09:48:22.514Z,98283.56
2022-09-28T09:51:41.624Z,98274.66
2022-09-28T09:55:07.944Z,98268.91
2022-09-28T09:58:18.733Z,98270.47
2022-09-28T10:01:39.181Z,98278.37
2022-09-28T10:04:48.289Z,98279.72
2022-09-28T10:08:10.927Z,98271.84
2022-09-28T10:11:29.514Z,98274.94
2022-09-28T10:14:32.171Z,98257.13
2022-09-28T10:17:37.381Z,98261.47
2022-09-28T10:20:49.799Z,98246.09
2022-09-28T10:24:02.662Z,98258.78
2022-09-28T10:27:20.497Z,98260.16
2022-09-28T10:30:25.433Z,98261.38
2022-09-28T10:33:33.299Z,98246.06
2022-09-28T10:36:50.117Z,98268.28
2022-09-28T10:39:56.010Z,98254.34
2022-09-28T10:43:07.860Z,98244.09
2022-09-28T10:46:21.787Z,98237.97
2022-09-28T10:49:27.222Z,98243.97
2022-09-28T10:52:33.651Z,98237.75
2022-09-28T10:55:41.971Z,98211.91
2022-09-28T10:58:45.545Z,98216.28
2022-09-28T11:01:54.107Z,98206.91
2022-09-28T11:04:59.803Z,98215.59
2022-09-28T11:08:07.621Z,98204.47
2022-09-28T11:11:16.977Z,98200.22
2022-09-28T11:14:38.400Z,98183.94
2022-09-28T11:17:45.483Z,98190.75
2022-09-28T11:20:49.582Z,98190.41
2022-09-28T11:24:19.348Z,98172.44
2022-09-28T11:27:25.449Z,98192.50
2022-09-28T11:30:38.656Z,98186.19
2022-09-28T11:33:46.819Z,98181.25
2022-09-28T11:36:58.426Z,98182.59
2022-09-28T11:40:29.451Z,98174.75
2022-09-28T11:43:41.309Z,98184.47
2022-09-28T11:46:52.050Z,98177.66
2022-09-28T11:50:23.559Z,98171.28
2022-09-28T11:53:56.941Z,98164.91
2022-09-28T11:57:03.313Z,98153.09
2022-09-28T12:00:19.962Z,98144.19
2022-09-28T12:03:42.698Z,98140.16
2022-09-28T12:07:11.627Z,98137.09
2022-09-28T12:10:38.751Z,98135.19
2022-09-28T12:13:48.126Z,98137.06
2022-09-28T12:17:06.217Z,98145.31
2022-09-28T12:20:20.729Z,98149.19
2022-09-28T12:23:36.840Z,98153.00
2022-09-28T12:26:48.671Z,98136.97
2022-09-28T12:30:13.769Z,98132.38
2022-09-28T12:33:16.864Z,98136.78
2022-09-28T12:36:28.530Z,98132.47
2022-09-28T12:39:58.138Z,98135.13
2022-09-28T12:43:10.331Z,98125.28
2022-09-28T12:46:28.529Z,98128.50
2022-09-28T12:53:14.122Z,98118.50
2022-09-28T12:56:41.758Z,98110.97
2022-09-28T12:59:47.387Z,98098.69
2022-09-28T13:03:00.161Z,98111.59
2022-09-28T13:06:05.657Z,98112.97
2022-09-28T13:09:24.030Z,98103.81
2022-09-28T13:12:53.025Z,98102.75
2022-09-28T13:16:02.966Z,98108.78
2022-09-28T13:19:19.075Z,98110.69
2022-09-28T13:22:44.417Z,98112.38
2022-09-28T13:25:59.222Z,98111.37
2022-09-28T13:29:11.122Z,98102.00
2022-09-28T13:32:14.079Z,98092.22
2022-09-28T13:35:21.909Z,98081.41
2022-09-28T13:38:25.445Z,98081.88
2022-09-28T13:41:50.876Z,98083.25
2022-09-28T13:45:15.989Z,98076.66
2022-09-28T13:48:24.714Z,98079.75
2022-09-28T13:51:45.905Z,98087.25
2022-09-28T13:54:51.553Z,98075.75
2022-09-28T13:58:15.824Z,98082.25
2022-09-28T14:01:23.363Z,98094.25
2022-09-28T14:04:53.122Z,98078.69
2022-09-28T14:08:33.607Z,98090.31
2022-09-28T14:11:36.777Z,98092.34
2022-09-28T14:14:50.786Z,98085.34
2022-09-28T14:18:08.467Z,98076.31
2022-09-28T14:21:41.594Z,98080.53
2022-09-28T14:24:59.258Z,98075.91
2022-09-28T14:28:23.341Z,98070.53
2022-09-28T14:31:28.917Z,98067.78
2022-09-28T14:34:34.307Z,98064.34
2022-09-28T14:37:58.775Z,98052.13
2022-09-28T14:41:10.259Z,98068.31
2022-09-28T14:44:18.014Z,98066.34
2022-09-28T14:47:43.839Z,98063.81
2022-09-28T14:50:47.762Z,98056.72
2022-09-28T14:53:51.874Z,98056.72
2022-09-28T14:56:57.451Z,98055.31
2022-09-28T15:00:07.664Z,98047.25
2022-09-28T15:03:12.567Z,98048.97
2022-09-28T15:06:16.617Z,98046.28
2022-09-28T15:09:36.970Z,98042.37
2022-09-28T15:12:43.795Z,98044.53
2022-09-28T15:15:50.555Z,98035.41
2022-09-28T15:19:13.414Z,98044.16
2022-09-28T15:22:17.414Z,98049.37
2022-09-28T15:25:22.361Z,98055.56
2022-09-28T15:28:25.435Z,98048.31
2022-09-28T15:31:34.091Z,98044.94
2022-09-28T15:34:52.786Z,98044.38
2022-09-28T15:37:55.660Z,98038.22
2022-09-28T15:41:00.390Z,98034.22
2022-09-28T15:44:15.197Z,98034.09
2022-09-28T15:47:27.191Z,98047.38
2022-09-28T15:50:30.079Z,98034.47
2022-09-28T15:53:33.781Z,98032.88
2022-09-28T15:56:54.891Z,98054.69
2022-09-28T15:59:59.243Z,98048.59
2022-09-28T16:03:22.059Z,98040.19
2022-09-28T16:06:24.989Z,98038.44
2022-09-28T16:09:32.624Z,98044.28
2022-09-28T16:12:37.399Z,98047.91
2022-09-28T16:15:40.077Z,98056.38
2022-09-28T16:18:48.606Z,98059.28
2022-09-28T16:22:03.967Z,98057.06
2022-09-28T16:25:16.348Z,98059.22
2022-09-28T16:28:45.860Z,98049.72
2022-09-28T16:31:52.753Z,98058.81
2022-09-28T16:35:13.494Z,98064.69
2022-09-28T16:38:17.990Z,98067.44
2022-09-28T16:41:24.463Z,98078.56
2022-09-28T16:44:30.702Z,98073.25
2022-09-28T16:47:34.628Z,98069.56
2022-09-28T16:50:37.570Z,98075.06
2022-09-28T16:53:58.853Z,98079.59
2022-09-28T16:57:03.257Z,98070.75
2022-09-28T17:00:06.487Z,98078.34
2022-09-28T17:03:15.034Z,98075.13
2022-09-28T17:06:19.337Z,98084.03
2022-09-28T17:09:23.017Z,98083.06
2022-09-28T17:12:28.887Z,98090.69
2022-09-28T17:15:32.024Z,98086.50
2022-09-28T17:18:37.867Z,98079.87
2022-09-28T17:21:49.831Z,98088.94
2022-09-28T17:24:52.406Z,98084.25
2022-09-28T17:27:58.233Z,98074.91
2022-09-28T17:31:01.817Z,98093.94
2022-09-28T17:34:04.862Z,98081.31
2022-09-28T17:37:09.257Z,98092.47
2022-09-28T17:40:21.604Z,98084.69
2022-09-28T17:43:24.202Z,98090.16
2022-09-28T17:46:30.053Z,98078.16
2022-09-28T17:49:32.695Z,98086.09
2022-09-28T17:52:35.739Z,98087.53
2022-09-28T17:55:39.715Z,98081.06
2022-09-28T17:58:42.618Z,98099.56
2022-09-28T18:01:45.289Z,98099.91
2022-09-28T18:04:52.083Z,98101.66
2022-09-28T18:07:55.218Z,98097.63
2022-09-28T18:10:58.817Z,98106.00
2022-09-28T18:14:01.584Z,98102.75
2022-09-28T18:17:04.590Z,98100.78
2022-09-28T18:20:10.130Z,98104.66
2022-09-28T18:23:13.237Z,98084.91
2022-09-28T18:26:16.829Z,98094.75
2022-09-28T18:29:20.108Z,98106.06
2022-09-28T18:32:23.685Z,98102.13
2022-09-28T18:35:26.733Z,98096.03
2022-09-28T18:38:29.512Z,98101.34
2022-09-28T18:41:32.735Z,98099.34
2022-09-28T18:44:35.388Z,98103.37
2022-09-28T18:47:39.990Z,98101.28
2022-09-28T18:50:43.083Z,98106.56
2022-09-28T18:53:46.554Z,98100.56
2022-09-28T18:56:51.289Z,98110.72
2022-09-28T18:59:54.694Z,98111.66
2022-09-28T19:02:57.384Z,98113.91
2022-09-28T19:06:00.626Z,98109.56
2022-09-28T19:09:03.529Z,98103.87
2022-09-28T19:12:06.432Z,98110.78
2022-09-28T19:15:12.902Z,98100.47
2022-09-28T19:18:15.900Z,98085.88
2022-09-28T19:21:19.030Z,98086.69
2022-09-28T19:24:22.041Z,98085.88
2022-09-28T19:27:24.645Z,98101.72
2022-09-28T19:30:27.562Z,98095.44
2022-09-28T19:33:30.327Z,98094.91
2022-09-28T19:36:33.453Z,98099.91
2022-09-28T19:39:36.116Z,98094.25
2022-09-28T19:42:39.637Z,98097.28
2022-09-28T19:45:42.813Z,98091.97
2022-09-28T19:48:45.696Z,98081.28
2022-09-28T19:52:11.619Z,98090.72
2022-09-28T19:55:13.752Z,98084.00
2022-09-28T19:58:16.302Z,98084.88
2022-09-28T20:01:19.287Z,98082.81
2022-09-28T20:04:23.224Z,98075.66
2022-09-28T20:07:25.868Z,98090.03
2022-09-28T20:10:28.792Z,98086.50
2022-09-28T20:13:33.887Z,98065.66
2022-09-28T20:16:37.053Z,98069.25
2022-09-28T20:19:39.657Z,98073.13
2022-09-28T20:22:43.786Z,98065.00
2022-09-28T20:25:46.387Z,98064.81
2022-09-28T20:28:49.486Z,98069.56
2022-09-28T20:31:52.290Z,98063.31
2022-09-28T20:34:55.086Z,98061.97
2022-09-28T20:37:58.487Z,98074.53
2022-09-28T20:41:01.789Z,98075.13
2022-09-28T20:44:06.341Z,98070.22
2022-09-28T20:47:09.551Z,98064.22
2022-09-28T20:50:12.373Z,98074.69
2022-09-28T20:53:15.190Z,98074.06
2022-09-28T20:56:26.722Z,98070.06
2022-09-28T20:59:31.177Z,98074.78
2022-09-28T21:02:33.910Z,98063.34
2022-09-28T21:05:36.854Z,98060.84
2022-09-28T21:08:39.619Z,98063.81
2022-09-28T21:11:43.052Z,98068.66
2022-09-28T21:14:45.869Z,98071.38
2022-09-28T21:17:48.754Z,98055.50
2022-09-28T21:20:51.722Z,98077.78
2022-09-28T21:23:55.765Z,98072.25
2022-09-28T21:26:59.462Z,98075.06
2022-09-28T21:30:02.319Z,98060.25
2022-09-28T21:33:05.152Z,98065.00
2022-09-28T21:36:08.425Z,98071.22
2022-09-28T21:39:11.054Z,98063.66
2022-09-28T21:42:13.871Z,98063.50
2022-09-28T21:45:17.396Z,98056.72
2022-09-28T21:48:21.993Z,98049.00
2022-09-28T21:51:25.341Z,98057.53
2022-09-28T21:54:28.943Z,98061.41
2022-09-28T21:57:31.482Z,98062.88
2022-09-28T22:00:34.558Z,98068.56
